Airport ID:KSPK
Update Time (UTC):21/04/2021 21:29
Wind Speed (Knots):18
Wind Direction (Magnetic):310
Temperature (°C):14
Dew Point (°C):1
Humidity (%):45
Altimeter (inHg):29.77
Density Altitude (Feet):5700
Visibility:10+
Clouds (Hundreds of feet):CLR
Present Weather:
METAR:METAR KSPK 212125Z AUTO 32020KT 10SM CLR 14/00 A2977 RMK AO2

The data displayed is for advisory purposes only and is not to be used for flight planning or operations.